History for KNYNEWYO791

New York City, New York, NY — Current Conditions
Daily Summary for December 16, 2017
  Current: High: Low: Average:
Temperature: 37.6°F 38.8°F 22.6°F 30.7°F
Dew Point: 31.4°F 32.1°F 20.7°F 25.3°F
Humidity: 78% 92% 75% 87%
Wind Speed: - 0.0mph - 0.0mph
Wind Gust: - 0.0mph - -
Wind: North - - North
Pressure: 29.99in 30.07in 29.90in -
Precipitation: 0.00in      
Statistics for the rest of the month
    High: Low: Average:
Temperature:   61.7°F 21.0°F 38.9°F
Dew Point:   56.9°F 10.7°F 32.2°F
Humidity:   99.0% 44.0% 78.0%
Wind Speed:   0.0mph from the North - 0.0mph
Wind Gust:   0.0mph from the North - -
Wind:   - - North
Pressure:   30.45in 29.41in -
Precipitation:   0.00in    
KNYNEWYO791 Weather Graph
Tabular Data for December 16, 2017
Time Temp. Dew Point Pressure Wind Gust Humidity Rainfall
00:12 23.0°F 21.0°F 29.90in - 92% -
00:52 22.6°F 20.7°F 29.90in - 92% -
01:42 22.8°F 20.8°F 29.92in - 92% -
02:02 23.0°F 21.0°F 29.93in - 92% -
02:42 23.4°F 21.4°F 29.95in - 92% -
03:02 23.7°F 21.7°F 29.95in - 92% -
04:23 24.3°F 22.0°F 29.97in - 91% -
05:03 24.3°F 22.0°F 29.98in - 91% -
05:33 24.4°F 22.2°F 29.99in - 91% -
05:43 24.4°F 22.2°F 29.99in - 91% -
06:13 24.6°F 22.1°F 30.00in - 90% -
06:33 24.6°F 22.1°F 30.01in - 90% -
06:53 24.6°F 22.1°F 30.01in - 90% -
07:33 24.8°F 22.5°F 30.03in - 91% -
07:43 25.0°F 22.7°F 30.04in - 91% -
08:03 25.5°F 23.3°F 30.04in - 91% -
08:44 27.3°F 25.0°F 30.06in - 91% -
09:14 28.6°F 25.7°F 30.06in - 89% -
09:54 30.2°F 27.1°F 30.07in - 88% -
10:44 33.1°F 29.6°F 30.05in - 87% -
11:04 34.2°F 29.5°F 30.04in - 83% -
11:14 34.7°F 30.1°F 30.03in - 83% -
11:54 35.8°F 30.2°F 30.01in - 80% -
12:04 35.8°F 29.3°F 30.01in - 77% -
12:34 37.0°F 29.9°F 29.99in - 75% -
13:15 38.3°F 31.7°F 29.98in - 77% -
13:25 38.8°F 31.9°F 29.98in - 76% -
14:05 38.7°F 32.1°F 29.98in - 77% -
14:45 37.6°F 31.4°F 29.99in - 78% -
Comma Delimited File
Powered by Weather Underground, Inc.